createdAt,value
2024-05-09T00:02:23.308Z,10.93
2024-05-09T00:04:55.655Z,10.89
2024-05-09T00:07:25.262Z,10.88
2024-05-09T00:09:54.780Z,10.83
2024-05-09T00:12:24.386Z,10.75
2024-05-09T00:14:54.026Z,10.66
2024-05-09T00:17:23.698Z,10.59
2024-05-09T00:19:55.934Z,10.58
2024-05-09T00:22:25.484Z,10.58
2024-05-09T00:24:55.015Z,10.62
2024-05-09T00:27:25.398Z,10.60
2024-05-09T00:29:57.378Z,10.60
2024-05-09T00:32:27.021Z,10.58
2024-05-09T00:34:59.320Z,10.60
2024-05-09T00:37:28.875Z,10.57
2024-05-09T00:39:58.351Z,10.57
2024-05-09T00:42:27.889Z,10.57
2024-05-09T00:44:57.458Z,10.56
2024-05-09T00:47:27.409Z,10.59
2024-05-09T00:49:59.704Z,10.58
2024-05-09T00:52:30.400Z,10.58
2024-05-09T00:55:00.414Z,10.58
2024-05-09T00:57:30.544Z,10.56
2024-05-09T01:00:00.103Z,10.53
2024-05-09T01:02:29.900Z,10.50
2024-05-09T01:05:02.306Z,10.46
2024-05-09T01:07:32.022Z,10.46
2024-05-09T01:10:01.537Z,10.41
2024-05-09T01:12:31.159Z,10.42
2024-05-09T01:15:00.793Z,10.41
2024-05-09T01:17:30.626Z,10.38
2024-05-09T01:20:04.240Z,10.39
2024-05-09T01:22:38.486Z,10.36
2024-05-09T01:25:10.815Z,10.34
2024-05-09T01:27:40.375Z,10.32
2024-05-09T01:30:17.184Z,10.30
2024-05-09T01:32:50.975Z,10.29
2024-05-09T01:35:23.510Z,10.27
2024-05-09T01:37:53.679Z,10.23
2024-05-09T01:40:36.116Z,10.21
2024-05-09T01:43:10.201Z,10.17
2024-05-09T01:45:41.451Z,10.18
2024-05-09T01:48:11.900Z,10.18
2024-05-09T01:50:43.152Z,10.12
2024-05-09T01:53:15.035Z,10.13
2024-05-09T01:55:47.680Z,10.11
2024-05-09T01:58:17.211Z,10.06
2024-05-09T02:00:46.952Z,10.06
2024-05-09T02:03:17.806Z,10.05
2024-05-09T02:05:49.508Z,10.03
2024-05-09T02:08:21.695Z,10.00
2024-05-09T02:10:54.412Z,9.96
2024-05-09T02:13:24.031Z,9.95
2024-05-09T02:15:53.884Z,9.91
2024-05-09T02:18:23.827Z,9.78
2024-05-09T02:20:53.593Z,9.77
2024-05-09T02:23:23.211Z,9.76
2024-05-09T02:25:55.509Z,9.74
2024-05-09T02:28:25.081Z,9.71
2024-05-09T02:30:54.644Z,9.70
2024-05-09T02:33:21.954Z,9.68
2024-05-09T02:35:51.658Z,9.66
2024-05-09T02:38:18.724Z,9.63
2024-05-09T02:40:48.343Z,9.52
2024-05-09T02:43:17.931Z,9.53
2024-05-09T02:45:47.461Z,9.55
2024-05-09T02:48:14.606Z,9.48
2024-05-09T02:50:44.923Z,9.53
2024-05-09T02:53:12.526Z,9.51
2024-05-09T02:55:43.505Z,9.50
2024-05-09T02:58:11.181Z,9.50
2024-05-09T03:00:43.442Z,9.47
2024-05-09T03:03:13.150Z,9.47
2024-05-09T03:05:45.134Z,9.45
2024-05-09T03:08:12.757Z,9.44
2024-05-09T03:10:42.896Z,9.39
2024-05-09T03:13:12.213Z,9.39
2024-05-09T03:15:45.700Z,9.32
2024-05-09T03:18:13.323Z,9.31
2024-05-09T03:20:44.238Z,9.27
2024-05-09T03:23:11.665Z,9.25
2024-05-09T03:25:41.241Z,9.24
2024-05-09T03:28:08.208Z,9.19
2024-05-09T03:30:41.919Z,9.20
2024-05-09T03:33:15.441Z,9.22
2024-05-09T03:35:46.182Z,9.20
2024-05-09T03:38:15.982Z,9.20
2024-05-09T03:40:50.538Z,9.20
2024-05-09T03:43:18.459Z,9.17
2024-05-09T03:45:48.457Z,9.15
2024-05-09T03:48:18.320Z,9.14
2024-05-09T03:50:48.196Z,9.12
2024-05-09T03:53:15.744Z,9.04
2024-05-09T03:55:45.556Z,8.96
2024-05-09T03:58:15.045Z,8.91
2024-05-09T04:00:44.799Z,8.91
2024-05-09T04:03:13.182Z,8.87
2024-05-09T04:05:46.105Z,8.81
2024-05-09T04:08:14.452Z,8.80
2024-05-09T04:10:44.443Z,8.81
2024-05-09T04:13:11.495Z,8.85
2024-05-09T04:15:41.209Z,8.88
2024-05-09T04:18:08.743Z,8.87
2024-05-09T04:20:40.587Z,8.88
2024-05-09T04:23:12.262Z,8.91
2024-05-09T04:25:45.053Z,8.91
2024-05-09T04:28:12.844Z,8.96
2024-05-09T04:30:43.118Z,8.98
2024-05-09T04:33:12.562Z,8.97
2024-05-09T04:35:44.972Z,8.99
2024-05-09T04:38:15.729Z,9.01
2024-05-09T04:40:46.019Z,9.01
2024-05-09T04:43:19.061Z,9.04
2024-05-09T04:45:48.968Z,9.06
2024-05-09T04:48:16.799Z,9.09
2024-05-09T04:50:46.795Z,9.06
2024-05-09T04:53:18.158Z,9.13
2024-05-09T04:55:47.917Z,9.12
2024-05-09T04:58:14.966Z,9.05
2024-05-09T05:00:44.625Z,9.11
2024-05-09T05:03:14.642Z,9.07
2024-05-09T05:05:46.473Z,9.14
2024-05-09T05:08:14.332Z,9.17
2024-05-09T05:10:48.140Z,9.19
2024-05-09T05:13:17.693Z,9.20
2024-05-09T05:15:48.473Z,9.26
2024-05-09T05:18:16.133Z,9.30
2024-05-09T05:20:46.315Z,9.35
2024-05-09T05:23:15.151Z,9.38
2024-05-09T05:25:48.653Z,9.41
2024-05-09T05:28:16.401Z,9.41
2024-05-09T05:30:46.224Z,9.44
2024-05-09T05:33:15.081Z,9.52
2024-05-09T05:35:47.976Z,9.58
2024-05-09T05:38:15.451Z,9.64
2024-05-09T05:40:47.818Z,9.74
2024-05-09T05:43:18.112Z,9.81
2024-05-09T05:45:47.994Z,9.85
2024-05-09T05:48:17.305Z,9.97
2024-05-09T05:50:49.978Z,10.06
2024-05-09T05:53:20.042Z,10.14
2024-05-09T05:55:55.514Z,10.19
2024-05-09T05:58:22.629Z,10.29
2024-05-09T06:00:53.662Z,10.40
2024-05-09T06:03:20.896Z,10.55
2024-05-09T06:05:50.662Z,10.67
2024-05-09T06:08:17.744Z,10.74
2024-05-09T06:10:47.532Z,10.92
2024-05-09T06:13:17.193Z,10.99
2024-05-09T06:15:46.837Z,11.10
2024-05-09T06:18:14.355Z,11.14
2024-05-09T06:20:44.740Z,11.20
2024-05-09T06:23:12.392Z,11.28
2024-05-09T06:25:42.848Z,11.43
2024-05-09T06:28:09.940Z,11.58
2024-05-09T06:30:43.205Z,11.77
2024-05-09T06:33:13.551Z,11.94
2024-05-09T06:35:45.417Z,12.12
2024-05-09T06:38:12.704Z,12.28
2024-05-09T06:40:44.266Z,12.41
2024-05-09T06:43:16.854Z,12.54
2024-05-09T06:45:52.776Z,12.72
2024-05-09T06:48:21.038Z,12.78
2024-05-09T06:50:51.545Z,12.96
2024-05-09T06:53:21.783Z,13.09
2024-05-09T06:55:51.629Z,13.25
2024-05-09T06:58:18.706Z,13.38
2024-05-09T07:00:51.148Z,13.53
2024-05-09T07:03:19.420Z,13.71
2024-05-09T07:05:50.143Z,13.86
2024-05-09T07:08:17.329Z,13.94
2024-05-09T07:10:47.713Z,14.01
2024-05-09T07:13:15.656Z,14.19
2024-05-09T07:15:46.044Z,14.32
2024-05-09T07:18:18.294Z,14.39
2024-05-09T07:20:50.150Z,14.49
2024-05-09T07:23:18.289Z,14.63
2024-05-09T07:25:48.276Z,14.74
2024-05-09T07:28:16.505Z,14.90
2024-05-09T07:30:46.500Z,15.06
2024-05-09T07:33:20.312Z,15.21
2024-05-09T07:35:51.694Z,15.32
2024-05-09T07:38:18.981Z,15.35
2024-05-09T07:40:48.926Z,15.40
2024-05-09T07:43:16.413Z,15.50
2024-05-09T07:45:53.034Z,15.65
2024-05-09T07:53:39.863Z,16.05
2024-05-09T07:56:14.479Z,16.18
2024-05-09T07:58:43.404Z,16.33
2024-05-09T08:01:13.140Z,16.45
2024-05-09T08:03:43.105Z,16.56
2024-05-09T08:06:12.765Z,16.72
2024-05-09T08:08:39.758Z,16.83
2024-05-09T08:11:09.446Z,16.94
2024-05-09T08:13:36.400Z,17.01
2024-05-09T08:16:06.250Z,17.12
2024-05-09T08:18:33.523Z,17.28
2024-05-09T08:21:07.485Z,17.39
2024-05-09T08:23:34.499Z,17.54
2024-05-09T08:26:04.038Z,17.65
2024-05-09T08:28:30.995Z,17.84
2024-05-09T08:31:03.181Z,17.98
2024-05-09T08:33:32.583Z,17.98
2024-05-09T08:36:04.956Z,17.95
2024-05-09T08:38:31.845Z,18.07
2024-05-09T08:41:02.091Z,18.23
2024-05-09T08:43:30.136Z,18.40
2024-05-09T08:46:01.591Z,18.55
2024-05-09T08:48:30.446Z,18.74
2024-05-09T08:51:01.534Z,18.81
2024-05-09T08:53:31.214Z,18.90
2024-05-09T08:56:04.166Z,18.70
2024-05-09T08:58:32.740Z,18.69
2024-05-09T09:01:05.230Z,18.86
2024-05-09T09:03:33.792Z,18.92
2024-05-09T09:06:06.504Z,18.83
2024-05-09T09:08:38.549Z,18.92
2024-05-09T09:11:08.397Z,19.07
2024-05-09T09:13:35.362Z,19.30
2024-05-09T09:16:05.037Z,19.44
2024-05-09T09:18:33.213Z,19.00
2024-05-09T09:21:03.334Z,19.01
2024-05-09T09:23:30.786Z,19.28
2024-05-09T09:26:04.132Z,19.42
2024-05-09T09:28:31.195Z,19.38
2024-05-09T09:31:05.059Z,19.11
2024-05-09T09:33:32.791Z,19.26
2024-05-09T09:36:03.442Z,19.58
2024-05-09T09:38:31.692Z,19.90
2024-05-09T09:41:08.814Z,20.28
2024-05-09T09:43:36.522Z,20.43
2024-05-09T09:46:09.744Z,20.45
2024-05-09T09:48:40.869Z,20.23
2024-05-09T09:51:10.943Z,19.48
2024-05-09T09:53:38.627Z,19.03
2024-05-09T09:56:13.001Z,19.03
2024-05-09T09:58:42.346Z,19.18
2024-05-09T10:01:12.118Z,19.41
2024-05-09T10:03:39.276Z,19.55
2024-05-09T10:06:10.414Z,19.81
2024-05-09T10:08:38.084Z,20.16
2024-05-09T10:11:10.564Z,20.47
2024-05-09T10:13:37.693Z,20.64
2024-05-09T10:16:12.377Z,20.29
2024-05-09T10:18:40.421Z,20.51
2024-05-09T10:21:20.196Z,20.77
2024-05-09T10:23:57.569Z,20.74
2024-05-09T10:26:38.874Z,20.78
2024-05-09T10:29:13.023Z,20.43
2024-05-09T10:31:45.701Z,20.52
2024-05-09T10:34:20.198Z,20.77
2024-05-09T10:36:54.562Z,21.02
2024-05-09T10:39:22.138Z,21.20
2024-05-09T10:41:54.427Z,21.04
2024-05-09T10:44:21.863Z,20.69
2024-05-09T10:46:53.768Z,20.69
2024-05-09T10:49:21.251Z,20.67
2024-05-09T10:51:52.021Z,20.66
2024-05-09T10:54:19.034Z,20.85
2024-05-09T10:56:48.566Z,21.12
2024-05-09T10:59:18.163Z,21.31
2024-05-09T11:01:47.766Z,21.31
2024-05-09T11:04:15.059Z,21.36
2024-05-09T11:06:45.060Z,20.45
2024-05-09T11:09:12.585Z,20.43
2024-05-09T11:11:42.540Z,20.53
2024-05-09T11:14:13.132Z,20.74
2024-05-09T11:16:45.323Z,20.80
2024-05-09T11:19:13.261Z,20.47
2024-05-09T11:21:45.757Z,20.55
2024-05-09T11:24:12.908Z,20.72
2024-05-09T11:26:42.572Z,20.79
2024-05-09T11:29:09.599Z,20.91
2024-05-09T11:31:50.606Z,20.85
2024-05-09T11:34:17.599Z,20.71
2024-05-09T11:36:47.602Z,20.75
2024-05-09T11:39:14.898Z,21.07
2024-05-09T11:41:46.788Z,21.32
2024-05-09T11:44:13.803Z,20.74
2024-05-09T11:46:44.215Z,20.62
2024-05-09T11:49:14.074Z,20.77
2024-05-09T11:51:43.821Z,20.90
2024-05-09T11:54:10.809Z,20.99
2024-05-09T11:56:40.542Z,21.05
2024-05-09T11:59:07.444Z,20.97
2024-05-09T12:01:37.119Z,21.28
2024-05-09T12:04:04.611Z,21.53
2024-05-09T12:06:37.244Z,21.38
2024-05-09T12:09:04.564Z,21.12
2024-05-09T12:11:34.320Z,20.90
2024-05-09T12:14:01.306Z,20.63
2024-05-09T12:16:31.161Z,20.61
2024-05-09T12:18:58.433Z,20.73
2024-05-09T12:21:28.189Z,20.82
2024-05-09T12:23:57.996Z,20.81
2024-05-09T12:26:27.728Z,20.77
2024-05-09T12:28:54.693Z,20.77
2024-05-09T12:31:24.413Z,20.89
2024-05-09T12:33:51.732Z,20.95
2024-05-09T12:36:21.395Z,20.56
2024-05-09T12:38:50.013Z,20.53
2024-05-09T12:41:22.407Z,20.72
2024-05-09T12:43:49.710Z,20.61
2024-05-09T12:46:20.483Z,20.69
2024-05-09T12:48:47.835Z,20.80
2024-05-09T12:51:17.630Z,20.82
2024-05-09T12:53:44.579Z,20.95
2024-05-09T12:56:14.171Z,21.03
2024-05-09T12:58:43.885Z,20.95
2024-05-09T13:01:13.553Z,20.72
2024-05-09T13:03:40.761Z,20.81
2024-05-09T13:06:10.892Z,20.95
2024-05-09T13:08:37.967Z,21.08
2024-05-09T13:11:07.874Z,20.86
2024-05-09T13:13:34.815Z,20.90
2024-05-09T13:16:07.737Z,20.92
2024-05-09T13:18:36.425Z,20.46
2024-05-09T13:21:06.123Z,20.24
2024-05-09T13:23:33.161Z,20.17
2024-05-09T13:26:02.879Z,20.13
2024-05-09T13:28:32.314Z,20.24
2024-05-09T13:31:02.228Z,20.28
2024-05-09T13:33:35.816Z,20.29
2024-05-09T13:36:05.208Z,20.09
2024-05-09T13:38:32.211Z,20.16
2024-05-09T13:41:01.883Z,20.10
2024-05-09T13:43:28.879Z,20.19
2024-05-09T13:45:59.114Z,20.11
2024-05-09T13:48:26.167Z,20.19
2024-05-09T13:50:58.740Z,20.23
2024-05-09T13:53:25.716Z,20.29
2024-05-09T13:55:55.521Z,20.17
2024-05-09T13:58:23.612Z,20.30
2024-05-09T14:00:53.564Z,20.30
2024-05-09T14:03:21.320Z,20.33
2024-05-09T14:05:52.454Z,20.32
2024-05-09T14:08:22.925Z,20.44
2024-05-09T14:10:53.694Z,20.71
2024-05-09T14:13:20.961Z,20.90
2024-05-09T14:15:51.003Z,20.89
2024-05-09T14:18:18.242Z,20.94
2024-05-09T14:20:47.844Z,21.02
2024-05-09T14:23:15.099Z,20.98
2024-05-09T14:25:51.187Z,20.80
2024-05-09T14:28:19.885Z,20.84
2024-05-09T14:30:49.615Z,20.82
2024-05-09T14:33:22.387Z,20.62
2024-05-09T14:35:52.258Z,20.56
2024-05-09T14:38:19.244Z,20.36
2024-05-09T14:40:51.806Z,20.46
2024-05-09T14:43:19.149Z,20.51
2024-05-09T14:45:49.338Z,20.73
2024-05-09T14:48:16.638Z,20.85
2024-05-09T14:50:46.350Z,20.97
2024-05-09T14:53:14.081Z,21.13
2024-05-09T14:55:44.385Z,21.20
2024-05-09T14:58:14.155Z,21.25
2024-05-09T15:00:48.511Z,21.08
2024-05-09T15:03:18.491Z,20.90
2024-05-09T15:05:49.446Z,20.76
2024-05-09T15:08:17.510Z,20.79
2024-05-09T15:10:49.858Z,20.83
2024-05-09T15:13:21.092Z,20.85
2024-05-09T15:15:51.099Z,20.76
2024-05-09T15:18:21.072Z,20.87
2024-05-09T15:20:51.014Z,20.82
2024-05-09T15:23:18.008Z,20.68
2024-05-09T15:25:47.819Z,20.40
2024-05-09T15:28:15.088Z,20.48
2024-05-09T15:30:48.142Z,20.47
2024-05-09T15:33:15.731Z,20.43
2024-05-09T15:35:46.859Z,20.24
2024-05-09T15:38:15.318Z,20.28
2024-05-09T15:40:45.035Z,20.23
2024-05-09T15:43:12.400Z,20.10
2024-05-09T15:45:42.299Z,19.95
2024-05-09T15:48:12.178Z,19.76
2024-05-09T15:50:42.823Z,19.78
2024-05-09T15:53:12.086Z,19.78
2024-05-09T15:55:42.725Z,19.64
2024-05-09T15:58:10.452Z,19.72
2024-05-09T16:00:42.696Z,19.73
2024-05-09T16:03:14.713Z,19.81
2024-05-09T16:05:47.186Z,19.95
2024-05-09T16:08:30.625Z,19.96
2024-05-09T16:11:00.567Z,19.95
2024-05-09T16:13:27.886Z,19.87
2024-05-09T16:15:57.678Z,19.83
2024-05-09T16:18:27.389Z,19.80
2024-05-09T16:21:00.406Z,19.71
2024-05-09T16:23:27.607Z,19.64
2024-05-09T16:25:57.418Z,19.66
2024-05-09T16:28:26.864Z,19.71
2024-05-09T16:30:56.907Z,19.70
2024-05-09T16:33:26.729Z,19.72
2024-05-09T16:35:56.498Z,19.55
2024-05-09T16:38:23.489Z,19.53
2024-05-09T16:40:53.303Z,19.30
2024-05-09T16:43:20.413Z,19.25
2024-05-09T16:45:50.347Z,19.30
2024-05-09T16:48:17.623Z,19.32
2024-05-09T16:50:49.849Z,19.28
2024-05-09T16:53:16.840Z,19.31
2024-05-09T16:55:46.439Z,19.36
2024-05-09T16:58:13.742Z,19.40
2024-05-09T17:00:44.478Z,19.40
2024-05-09T17:03:14.819Z,19.40
2024-05-09T17:05:47.158Z,19.39
2024-05-09T17:08:18.281Z,19.36
2024-05-09T17:10:49.008Z,19.39
2024-05-09T17:13:22.621Z,19.33
2024-05-09T17:15:52.531Z,19.23
2024-05-09T17:18:22.471Z,19.20
2024-05-09T17:20:50.371Z,19.14
2024-05-09T17:23:22.771Z,19.16
2024-05-09T17:25:49.829Z,19.08
2024-05-09T17:28:19.791Z,19.01
2024-05-09T17:30:46.931Z,18.92
2024-05-09T17:33:16.741Z,18.88
2024-05-09T17:35:50.318Z,18.89
2024-05-09T17:38:23.442Z,18.91
2024-05-09T17:40:52.039Z,18.98
2024-05-09T17:43:22.045Z,19.00
2024-05-09T17:45:49.190Z,19.02
2024-05-09T17:48:20.177Z,18.99
2024-05-09T17:50:47.368Z,18.98
2024-05-09T17:53:16.942Z,18.95
2024-05-09T17:55:48.246Z,18.98
2024-05-09T17:58:18.079Z,18.97
2024-05-09T18:00:48.355Z,18.97
2024-05-09T18:03:18.063Z,18.96
2024-05-09T18:05:45.555Z,18.92
2024-05-09T18:08:15.634Z,18.85
2024-05-09T18:10:42.934Z,18.70
2024-05-09T18:13:15.893Z,18.64
2024-05-09T18:15:43.671Z,18.53
2024-05-09T18:18:17.745Z,18.47
2024-05-09T18:20:46.202Z,18.40
2024-05-09T18:23:18.116Z,18.33
2024-05-09T18:25:46.295Z,18.20
2024-05-09T18:28:19.162Z,18.10
2024-05-09T18:30:46.409Z,17.99
2024-05-09T18:33:16.531Z,17.91
2024-05-09T18:35:44.747Z,17.90
2024-05-09T18:38:14.627Z,17.86
2024-05-09T18:40:44.906Z,17.91
2024-05-09T18:43:26.202Z,17.79
2024-05-09T18:45:58.644Z,17.70
2024-05-09T18:48:28.477Z,17.79
2024-05-09T18:50:55.614Z,17.88
2024-05-09T18:53:25.285Z,17.83
2024-05-09T18:55:52.262Z,17.79
2024-05-09T18:58:27.068Z,17.80
2024-05-09T19:00:55.591Z,17.81
2024-05-09T19:03:26.404Z,17.79
2024-05-09T19:05:53.704Z,17.75
2024-05-09T19:08:23.362Z,17.72
2024-05-09T19:10:52.584Z,17.62
2024-05-09T19:13:25.319Z,17.60
2024-05-09T19:15:52.510Z,17.41
2024-05-09T19:18:22.295Z,17.32
2024-05-09T19:20:49.523Z,17.26
2024-05-09T19:23:19.102Z,17.24
2024-05-09T19:25:46.102Z,17.22
2024-05-09T19:28:15.768Z,17.19
2024-05-09T19:30:45.563Z,17.12
2024-05-09T19:33:15.304Z,17.11
2024-05-09T19:35:42.589Z,17.08
2024-05-09T19:38:12.491Z,17.02
2024-05-09T19:40:39.578Z,16.91
2024-05-09T19:43:09.571Z,16.81
2024-05-09T19:45:39.846Z,16.83
2024-05-09T19:48:12.591Z,16.82
2024-05-09T19:50:43.412Z,16.79
2024-05-09T19:53:14.967Z,16.79
2024-05-09T19:55:42.255Z,16.77
2024-05-09T19:58:13.354Z,16.69
2024-05-09T20:00:42.841Z,16.59
2024-05-09T20:03:17.079Z,16.41
2024-05-09T20:05:46.501Z,16.28
2024-05-09T20:08:16.904Z,16.27
2024-05-09T20:10:44.223Z,16.23
2024-05-09T20:13:13.998Z,16.19
2024-05-09T20:15:42.106Z,16.14
2024-05-09T20:18:12.012Z,16.19
2024-05-09T20:20:43.906Z,16.14
2024-05-09T20:23:14.860Z,16.14
2024-05-09T20:25:42.317Z,16.12
2024-05-09T20:28:12.056Z,16.05
2024-05-09T20:30:39.252Z,16.01
2024-05-09T20:33:09.975Z,15.89
2024-05-09T20:35:37.604Z,15.90
2024-05-09T20:38:09.951Z,15.91
2024-05-09T20:40:39.070Z,15.88
2024-05-09T20:43:10.844Z,15.91
2024-05-09T20:45:39.017Z,15.80
2024-05-09T20:48:10.730Z,15.82
2024-05-09T20:50:41.096Z,15.78
2024-05-09T20:53:15.615Z,15.77
2024-05-09T20:55:43.623Z,15.77
2024-05-09T20:58:13.784Z,15.78
2024-05-09T21:00:44.420Z,15.74
2024-05-09T21:03:17.113Z,15.67
2024-05-09T21:05:45.330Z,15.72
2024-05-09T21:08:17.924Z,15.66
2024-05-09T21:10:47.398Z,15.69
2024-05-09T21:13:17.338Z,15.66
2024-05-09T21:15:44.443Z,15.62
2024-05-09T21:18:14.190Z,15.59
2024-05-09T21:20:41.326Z,15.65
2024-05-09T21:23:10.966Z,15.66
2024-05-09T21:25:40.731Z,15.63
2024-05-09T21:28:10.551Z,15.60
2024-05-09T21:30:41.837Z,15.55
2024-05-09T21:33:14.719Z,15.47
2024-05-09T21:35:42.462Z,15.39
2024-05-09T21:38:13.917Z,15.30
2024-05-09T21:40:46.781Z,15.17
2024-05-09T21:43:14.503Z,15.11
2024-05-09T21:45:44.601Z,15.07
2024-05-09T21:48:12.875Z,15.05
2024-05-09T21:50:42.936Z,15.05
2024-05-09T21:53:10.861Z,15.07
2024-05-09T21:55:46.281Z,15.05
2024-05-09T21:58:14.298Z,15.03
2024-05-09T22:00:46.494Z,15.06
2024-05-09T22:03:14.365Z,14.99
2024-05-09T22:05:45.142Z,15.03
2024-05-09T22:08:12.614Z,14.99
2024-05-09T22:10:42.360Z,14.92
2024-05-09T22:13:12.299Z,14.94
2024-05-09T22:15:42.599Z,14.85
2024-05-09T22:18:11.030Z,14.82
2024-05-09T22:20:45.254Z,14.75
2024-05-09T22:23:13.671Z,14.75
2024-05-09T22:25:43.474Z,14.76
2024-05-09T22:28:15.354Z,14.60
2024-05-09T22:30:47.061Z,14.57
2024-05-09T22:33:15.562Z,14.49
2024-05-09T22:35:45.457Z,14.44
2024-05-09T22:38:12.526Z,14.39
2024-05-09T22:40:47.721Z,14.38
2024-05-09T22:43:21.373Z,14.36
2024-05-09T22:45:53.309Z,14.33
2024-05-09T22:48:20.681Z,14.30
2024-05-09T22:50:50.432Z,14.32
2024-05-09T22:53:18.039Z,14.26
2024-05-09T22:55:47.670Z,14.18
2024-05-09T22:58:14.636Z,13.96
2024-05-09T23:00:47.225Z,13.98
2024-05-09T23:03:15.989Z,13.96
2024-05-09T23:05:45.659Z,13.96
2024-05-09T23:08:13.657Z,13.94
2024-05-09T23:10:43.246Z,13.86
2024-05-09T23:13:10.453Z,13.83
2024-05-09T23:15:40.169Z,13.77
2024-05-09T23:18:10.029Z,13.78
2024-05-09T23:20:40.463Z,13.72
2024-05-09T23:23:07.842Z,13.58
2024-05-09T23:25:37.767Z,13.48
2024-05-09T23:28:05.607Z,13.44
2024-05-09T23:30:39.666Z,13.34
2024-05-09T23:33:12.226Z,13.16
2024-05-09T23:35:44.616Z,13.21
2024-05-09T23:38:11.909Z,13.21
2024-05-09T23:40:42.711Z,13.16
2024-05-09T23:43:11.151Z,13.12
2024-05-09T23:45:41.626Z,13.15
2024-05-09T23:48:12.025Z,13.20
2024-05-09T23:50:41.950Z,13.19
2024-05-09T23:53:10.166Z,13.15
2024-05-09T23:55:40.595Z,13.11
2024-05-09T23:58:08.297Z,13.00
